Ormsby, MN (56162)

05:04 PM CST del 08 Febbraio 2016 (GMT -0600)
NuWay Coop - Ormsby | | Change Station
CLOSE
Current Station
Stazione meteo personale
Location: Ormsby, MN
Altitudine: 1187 ft
Stazioni meteo nelle vicinanze

Alt. 1187 ft 43.85 °N, 94.70 °W | Updated 16 seconds ago

Neve
Neve
16.2 °F
Sembra -3 °F
N
27.0
Vento Variabile Vento da Ovest
Gusts 45.0 mph

Oggi
Massima -- | Minima -- °F
--% Possibilità di precip.
Ieri
Massima -- | Minima -- °F
Precip. -- in
Pressione 30.03 in
Visibilità 2.5 miglia
Nuvole Molto nuvoloso 1800 ft
Molto nuvoloso 2300 ft
Coperto 3200 ft
Raffreddamento del vento -3 °F
Punto di rugiada 11 °F
Umidità 80%
Piovosità 0.00 in
Spessore del manto nevoso Non disponibile.
7:27 AM 5:38 PM
Luna nuova, 0% visible
METAR KJYG 082255Z AUTO 31022G31KT 2 1/2SM -SN BKN018 BKN023 OVC032 M08/M11 A3003 RMK AO2 VIS 1V5
Pressione 30.03 in
Visibilità 2.5 miglia
Nuvole Molto nuvoloso 1800 ft
Molto nuvoloso 2300 ft
Coperto 3200 ft
Raffreddamento del vento -3 °F
Punto di rugiada 11 °F
Umidità 80%
Piovosità 0.00 in
Spessore del manto nevoso Non disponibile.
7:27 AM 5:38 PM
Luna nuova, 0% visible
METAR KJYG 082255Z AUTO 31022G31KT 2 1/2SM -SN BKN018 BKN023 OVC032 M08/M11 A3003 RMK AO2 VIS 1V5

10-Day Weather Forecast

Almanac

Astronomia

Feb. 08, 2016 Alba Tramonto
Ora attuale
Crepuscolo civile
Crepuscolo nautico
Crepuscolo astronomico
Luna
Estensione della luce visibile
Lunghezza del giorno
Tomorrow will be .
, % of the Moon is Illuminated

Gli estremi di oggi

State Highs State Lows

Community

WunderPhotos

Upload Photos

1,891,523 foto caricate!

WunderBlog® & News

Nearby

Qualità dell'aria

  Qualità dell'aria Indice AQ Inquinante
Not available.

Profondità neve

Stazione Profondità Altitudine

Attività sismica

Città  Distanza Mag. Data & Ora
Minimo Magnitudo Mostrato è 2.5.

Temperature delle acque costiere

Località Temperatura

Stations

Stazioni meteo nelle vicinanze

Ubicazione della stazione Temp. Raffreddamento del vento Punto di rugiada Umidità Vento Precip. Alt. Aggiornato Tipo
                   

Watches & Warnings

Blizzard Warning
Issued: 15:47 CST Feb. 8, 2016 – National Weather Service

... Blizzard Warning remains in effect until 6 PM CST this
evening...

* conditions slowly improving through 6 PM.

* Winds gusting as high as 45 mph will cause occasional whiteout
conditions in blowing snow.

* Travel will be difficult through the afternoon.

Precautionary/preparedness actions...

A Blizzard Warning means falling and blowing snow with strong
winds and poor visibilities will lead to whiteout conditions...
making travel extremely dangerous. If you must travel... have a
winter survival kit with you. If you get stranded... stay with
your vehicle. The latest Road conditions for the state you are
calling from can be obtained by calling 5 1 1.